Ash, NC

8:56 PM EDT on August 29, 2014 (GMT -0400)
Grand Strand | Change Station
CLOSE
Current Station
Airport
Location: North Myrtle Beach,
Elevation: 33 ft
Nearby Weather Stations

Elev 33 ft 33.81 °N, 78.72 °W | Updated 3 minutes ago

Clear
Clear
81 °F
Feels Like 86 °F
N
6
Wind Variable Wind from Variable

Today
High -- | Low -- °F
--% Chance of Precip.
Yesterday
High -- | Low -- °F
Precip. -- in
6:45 AM 7:43 PM
Waxing Crescent, 17% visible
Pressure 30.12 in
Visibility 10.0 miles
Clouds Clear
Heat Index 86 °F
Dew Point 73 °F
Humidity 77%
Rainfall 0.00 in
Snow Depth Not available.
UV 0 out of 12
Pollen 8.10 out of 12
Air Quality Not available.
Flu Activity Not available.
METAR KCRE 300053Z VRB05KT 10SM CLR 27/23 A3011 RMK AO2 SLP197 T02720228

More Conditions Fewer Conditions

Pressure 30.12 in
Visibility 10.0 miles
Clouds Clear
Heat Index 86 °F
Dew Point 73 °F
Humidity 77%
Rainfall 0.00 in
Snow Depth Not available.
UV 0 out of 12
Pollen 8.10 out of 12
Air Quality Not available.
Flu Activity Not available.
METAR KCRE 300053Z VRB05KT 10SM CLR 27/23 A3011 RMK AO2 SLP197 T02720228

More Conditions Fewer Conditions

10-Day Weather Forecast

Almanac

Astronomy

Aug. 29, 2014 Rise Set
Actual Time 6:45 AM EDT 7:43 PM EDT
Civil Twilight 6:19 AM EDT 8:09 PM EDT
Nautical Twilight 5:49 AM EDT 8:39 PM EDT
Astronomical Twilight 5:17 AM EDT 9:11 PM EDT
Moon 10:21 AM EDT (8/29) 9:53 PM EDT (8/29)
Length of Visible Light 13h 49m
Length of Day
12h 58m
Tomorrow will be 2m 0s shorter.
Waxing Crescent, 17% of the Moon is Illuminated
Today
Waxing Crescent
Sep 2
First Quarter
Sep 8
Full
Sep 15
Last Quarter
Sep 24
New

Today's Extremes

State Highs State Lows

Community

WunderPhotos

Upload Photos

1,748,390 photos uploaded!

Nearby

Snow Depth

Station Depth Elevation
No new snow has been reported.

Earthquake Activity

City Distance Mag. Time & Date
No recent earthquake activity has been reported nearby.
Minimum magnitude displayed is 2.5.

Coastal Water Temperatures

Place Temperature
Johnny Mercer Pier, Wrightsville Beach, NC 84.0 °F
Springmaid Pier, SC 82.9 °F

Nearby Weather Stations